地図

経路データ

SID SEASON NUMBER BASIN SUBBASIN NAME ISO_TIME NATURE LAT LON WMO_WIND WMO_PRES WMO_AGENCY TRACK_TYPE DIST2LAND LANDFALL IFLAG USA_AGENCY USA_ATCF_ID USA_LAT USA_LON USA_RECORD USA_STATUS USA_WIND USA_PRES USA_SSHS USA_R34_NE USA_R34_SE USA_R34_SW USA_R34_NW USA_R50_NE USA_R50_SE USA_R50_SW USA_R50_NW USA_R64_NE USA_R64_SE USA_R64_SW USA_R64_NW USA_POCI USA_ROCI USA_RMW USA_EYE TOKYO_LAT TOKYO_LON TOKYO_GRADE TOKYO_WIND TOKYO_PRES TOKYO_R50_DIR TOKYO_R50_LONG TOKYO_R50_SHORT TOKYO_R30_DIR TOKYO_R30_LONG TOKYO_R30_SHORT TOKYO_LAND CMA_LAT CMA_LON CMA_CAT CMA_WIND CMA_PRES HKO_LAT HKO_LON HKO_CAT HKO_WIND HKO_PRES NEWDELHI_LAT NEWDELHI_LON NEWDELHI_GRADE NEWDELHI_WIND NEWDELHI_PRES NEWDELHI_CI NEWDELHI_DP NEWDELHI_POCI REUNION_LAT REUNION_LON REUNION_TYPE REUNION_WIND REUNION_PRES REUNION_TNUM REUNION_CI REUNION_RMW REUNION_R34_NE REUNION_R34_SE REUNION_R34_SW REUNION_R34_NW REUNION_R50_NE REUNION_R50_SE REUNION_R50_SW REUNION_R50_NW REUNION_R64_NE REUNION_R64_SE REUNION_R64_SW REUNION_R64_NW BOM_LAT BOM_LON BOM_TYPE BOM_WIND BOM_PRES BOM_TNUM BOM_CI BOM_RMW BOM_R34_NE BOM_R34_SE BOM_R34_SW BOM_R34_NW BOM_R50_NE BOM_R50_SE BOM_R50_SW BOM_R50_NW BOM_R64_NE BOM_R64_SE BOM_R64_SW BOM_R64_NW BOM_ROCI BOM_POCI BOM_EYE BOM_POS_METHOD BOM_PRES_METHOD NADI_LAT NADI_LON NADI_CAT NADI_WIND NADI_PRES WELLINGTON_LAT WELLINGTON_LON WELLINGTON_WIND WELLINGTON_PRES DS824_LAT DS824_LON DS824_STAGE DS824_WIND DS824_PRES TD9636_LAT TD9636_LON TD9636_STAGE TD9636_WIND TD9636_PRES TD9635_LAT TD9635_LON TD9635_WIND TD9635_PRES TD9635_ROCI NEUMANN_LAT NEUMANN_LON NEUMANN_CLASS NEUMANN_WIND NEUMANN_PRES MLC_LAT MLC_LON MLC_CLASS MLC_WIND MLC_PRES USA_GUST BOM_GUST BOM_GUST_PER REUNION_GUST REUNION_GUST_PER USA_SEAHGT USA_SEARAD_NE USA_SEARAD_SE USA_SEARAD_SW USA_SEARAD_NW STORM_SPEED STORM_DIR
1996303N07155 1996 105 WP MM ERNIE 1996-10-29 00:00:00 NR 7.00000 155.000 spur-merge 1178 1170 O_____________ jtwc_wp WP371996 7.00000 155.000 15 -1 5 270
1996303N07155 1996 105 WP MM ERNIE 1996-10-29 03:00:00 NR 7.00003 154.750 spur-merge 1170 1158 P_____________ WP371996 7.00003 154.750 15 -1 5 270
1996303N07155 1996 105 WP MM ERNIE 1996-10-29 06:00:00 NR 7.00000 154.500 spur-merge 1158 1150 O_____________ jtwc_wp WP371996 7.00000 154.500 15 -1 5 270
1996303N07155 1996 105 WP MM ERNIE 1996-10-29 09:00:00 NR 6.99999 154.250 spur-merge 1150 1140 P_____________ WP371996 6.99999 154.250 15 -1 5 270
1996303N07155 1996 105 WP MM ERNIE 1996-10-29 12:00:00 NR 7.00000 154.000 spur-merge 1140 1133 O_____________ jtwc_wp WP371996 7.00000 154.000 15 -1 5 270
1996303N07155 1996 105 WP MM ERNIE 1996-10-29 15:00:00 NR 6.99999 153.750 spur-merge 1133 1124 P_____________ WP371996 6.99999 153.750 15 -1 5 270
1996303N07155 1996 105 WP MM ERNIE 1996-10-29 18:00:00 NR 7.00000 153.500 spur-merge 1124 1119 O_____________ jtwc_wp WP371996 7.00000 153.500 15 -1 5 270
1996303N07155 1996 105 WP MM ERNIE 1996-10-29 21:00:00 NR 6.99999 153.250 spur-merge 1119 1111 P_____________ WP371996 6.99999 153.250 15 -1 5 270
1996303N07155 1996 105 WP MM ERNIE 1996-10-30 00:00:00 NR 7.00000 153.000 spur-merge 1111 1107 O_____________ jtwc_wp WP371996 7.00000 153.000 15 -1 5 270
1996303N07155 1996 105 WP MM ERNIE 1996-10-30 03:00:00 NR 6.99999 152.750 spur-merge 1107 1101 P_____________ WP371996 6.99999 152.750 15 -1 5 270
1996303N07155 1996 105 WP MM ERNIE 1996-10-30 06:00:00 NR 7.00000 152.500 spur-merge 1101 1098 O_____________ jtwc_wp WP371996 7.00000 152.500 15 -1 5 270
1996303N07155 1996 105 WP MM ERNIE 1996-10-30 09:00:00 NR 6.99999 152.250 spur-merge 1098 1093 P_____________ WP371996 6.99999 152.250 15 -1 5 270
1996303N07155 1996 105 WP MM ERNIE 1996-10-30 12:00:00 NR 7.00000 152.000 spur-merge 1093 1091 O_____________ jtwc_wp WP371996 7.00000 152.000 15 -1 5 270
1996303N07155 1996 105 WP MM ERNIE 1996-10-30 15:00:00 NR 6.99999 151.750 spur-merge 1091 1089 P_____________ WP371996 6.99999 151.750 15 -1 5 270
1996303N07155 1996 105 WP MM ERNIE 1996-10-30 18:00:00 NR 7.00000 151.500 spur-merge 1089 1087 O_____________ jtwc_wp WP371996 7.00000 151.500 15 -1 5 271
1996303N07155 1996 105 WP MM ERNIE 1996-10-30 21:00:00 NR 7.00747 151.258 spur-merge 1087 1087 P_____________ WP371996 7.00747 151.258 15 -1 5 270
1996303N07155 1996 105 WP MM ERNIE 1996-10-31 00:00:00 NR 7.00000 151.000 spur-merge 1087 1083 O_____________ jtwc_wp WP371996 7.00000 151.000 15 -1 5 265
1996303N07155 1996 105 WP MM ERNIE 1996-10-31 03:00:00 NR 6.95748 150.715 spur-merge 1083 1062 P_____________ WP371996 6.95748 150.715 15 -1 6 260
1996303N07155 1996 105 WP MM ERNIE 1996-10-31 06:00:00 NR 6.90000 150.400 spur-merge 1062 1052 O_____________ jtwc_wp WP371996 6.90000 150.400 15 -1 6 261
1996303N07155 1996 105 WP MM ERNIE 1996-10-31 09:00:00 NR 6.85745 150.073 spur-merge 1052 1029 P_____________ WP371996 6.85745 150.073 15 -1 7 262
1996303N07155 1996 105 WP MM ERNIE 1996-10-31 12:00:00 NR 6.80000 149.700 spur-merge 1029 1008 O_____________ jtwc_wp WP371996 6.80000 149.700 15 -1 8 259
1996303N07155 1996 105 WP MM ERNIE 1996-10-31 15:00:00 NR 6.70745 149.280 spur-merge 1008 987 P_____________ WP371996 6.70745 149.280 15 -1 9 257
1996303N07155 1996 105 WP MM ERNIE 1996-10-31 18:00:00 NR 6.60000 148.800 spur-merge 987 968 O_____________ jtwc_wp WP371996 6.60000 148.800 15 -1 10 258
1996303N07155 1996 105 WP MM ERNIE 1996-10-31 21:00:00 NR 6.50737 148.295 spur-merge 968 953 P_____________ WP371996 6.50737 148.295 15 -1 11 260
1996303N07155 1996 105 WP MM ERNIE 1996-11-01 00:00:00 NR 6.40000 147.700 spur-merge 953 941 O_____________ jtwc_wp WP371996 6.40000 147.700 15 -1 13 259
1996303N07155 1996 105 WP MM ERNIE 1996-11-01 03:00:00 NR 6.25001 146.980 spur-merge 941 918 P_____________ WP371996 6.25001 146.980 15 -1 15 259
1996303N07155 1996 105 WP MM ERNIE 1996-11-01 06:00:00 NR 6.10000 146.200 spur-merge 919 911 O_____________ jtwc_wp WP371996 6.10000 146.200 15 -1 15 260
1996303N07155 1996 105 WP MM ERNIE 1996-11-01 09:00:00 NR 5.99240 145.450 spur-merge 915 911 P_____________ WP371996 5.99240 145.450 15 -1 15 262
1996303N07155 1996 105 WP MM ERNIE 1996-11-01 12:00:00 NR 5.90000 144.700 spur-merge 921 921 O_____________ jtwc_wp WP371996 5.90000 144.700 15 -1 15 262
1996303N07155 1996 105 WP MM ERNIE 1996-11-01 15:00:00 NR 5.79248 143.928 spur-merge 934 934 P_____________ WP371996 5.79248 143.928 15 -1 15 262
1996303N07155 1996 105 WP MM ERNIE 1996-11-01 18:00:00 NR 5.70000 143.200 spur-merge 952 929 O_____________ jtwc_wp WP371996 5.70000 143.200 15 -1 14 264
1996303N07155 1996 105 WP MM ERNIE 1996-11-01 21:00:00 NR 5.64241 142.563 spur-merge 929 906 P_____________ WP371996 5.64241 142.563 15 -1 12 265
1996303N07155 1996 105 WP MM ERNIE 1996-11-02 00:00:00 NR 5.60000 142.000 spur-merge 906 875 O_____________ jtwc_wp WP371996 5.60000 142.000 15 -1 11 265
1996303N07155 1996 105 WP MM ERNIE 1996-11-02 03:00:00 NR 5.54245 141.470 spur-merge 875 854 P_____________ WP371996 5.54245 141.470 15 -1 10 264
1996303N07155 1996 105 WP MM ERNIE 1996-11-02 06:00:00 NR 5.50000 141.000 spur-merge 854 839 O_____________ jtwc_wp WP371996 5.50000 141.000 15 -1 9 267
1996303N07155 1996 105 WP MM ERNIE 1996-11-02 09:00:00 NR 5.49994 140.585 spur-merge 839 826 P_____________ WP371996 5.49994 140.585 15 -1 8 270
1996303N07155 1996 105 WP MM ERNIE 1996-11-02 12:00:00 NR 5.50000 140.200 spur-merge 826 815 O_____________ jtwc_wp WP371996 5.50000 140.200 15 -1 8 267
1996303N07155 1996 105 WP MM ERNIE 1996-11-02 15:00:00 NR 5.46492 139.823 spur-merge 815 795 P_____________ WP371996 5.46492 139.823 15 -1 8 263
1996303N07155 1996 105 WP MM ERNIE 1996-11-02 18:00:00 NR 5.40000 139.400 spur-merge 795 760 O_____________ jtwc_wp WP371996 5.40000 139.400 15 -1 10 260
1996303N07155 1996 105 WP MM ERNIE 1996-11-02 21:00:00 NR 5.30748 138.880 spur-merge 760 723 P_____________ WP371996 5.30748 138.880 15 -1 11 260
1996303N07155 1996 105 WP MM ERNIE 1996-11-03 00:00:00 NR 5.20000 138.300 spur-merge 723 690 O_____________ jtwc_wp WP371996 5.20000 138.300 15 -1 12 260
1996303N07155 1996 105 WP MM ERNIE 1996-11-03 03:00:00 NR 5.09249 137.700 spur-merge 690 660 P_____________ WP371996 5.09249 137.700 15 -1 12 261
1996303N07155 1996 105 WP MM ERNIE 1996-11-03 06:00:00 NR 5.00000 137.100 spur-merge 660 637 O_____________ jtwc_wp WP371996 5.00000 137.100 15 -1 12 261
1996303N07155 1996 105 WP MM ERNIE 1996-11-03 09:00:00 NR 4.91994 136.542 spur-merge 635 629 P_____________ WP371996 4.91994 136.542 17 -1 11 265
1996303N07155 1996 105 WP MM ERNIE 1996-11-03 12:00:00 NR 4.90000 136.000 spur-merge 629 627 O_____________ jtwc_wp WP371996 4.90000 136.000 20 -1 11 273
1996303N07155 1996 105 WP MM ERNIE 1996-11-03 15:00:00 NR 4.97737 135.480 spur-merge 638 638 P_____________ WP371996 4.97737 135.480 20 -1 11 280
1996303N07155 1996 105 WP MM ERNIE 1996-11-03 18:00:00 NR 5.10000 134.900 spur-merge 651 641 O_____________ jtwc_wp WP371996 5.10000 134.900 20 -1 13 280
1996303N07155 1996 105 WP MM ERNIE 1996-11-03 21:00:00 NR 5.20008 134.158 spur-merge 641 608 P_____________ WP371996 5.20008 134.158 20 -1 15 278
1996303N07155 1996 105 WP MM ERNIE 1996-11-04 00:00:00 NR 5.30000 133.400 spur-merge 608 559 O_____________ jtwc_wp WP371996 5.30000 133.400 20 -1 14 277
1996303N07155 1996 105 WP MM ERNIE 1996-11-04 03:00:00 NR 5.37741 132.762 spur-merge 559 513 P_____________ WP371996 5.37741 132.762 20 -1 12 280
1996303N07155 1996 105 WP MM ERNIE 1996-11-04 06:00:00 NR 5.50000 132.200 spur-merge 513 489 O_____________ jtwc_wp WP371996 5.50000 132.200 20 -1 11 288
1996303N07155 1996 105 WP MM ERNIE 1996-11-04 09:00:00 NR 5.71992 131.685 spur-merge 489 481 P_____________ WP371996 5.71992 131.685 22 -1 10 300
1996303N07155 1996 105 WP MM ERNIE 1996-11-04 12:00:00 NR 5.98000 131.360 spur-merge 493 483 O__O__________ jtwc_wp WP371996 6.00000 131.200 25 -1 5.90000 132.000 TD 25 1000 9 307
1996303N07155 1996 105 WP MM ERNIE 1996-11-04 15:00:00 NR 6.25167 130.967 spur-merge 496 450 P__P__________ WP371996 6.27745 130.700 25 -1 6.20009 131.500 TD 27 998 10 305
1996303N07155 1996 105 WP MM ERNIE 1996-11-04 18:00:00 NR 6.55714 130.543 spur-merge 437 389 O__O__________ jtwc_wp WP371996 6.60000 130.200 25 -1 6.50000 131.000 TD 30 996 11 307
1996303N07155 1996 105 WP MM ERNIE 1996-11-04 21:00:00 NR 6.89621 130.096 spur-merge 389 331 P__P__________ WP371996 6.99247 129.693 25 -1 6.79995 130.500 TD 30 996 12 306
1996303N07155 1996 105 WP MM ERNIE 1996-11-05 00:00:00 NR 7.25000 129.600 spur-merge 331 286 O__O__________ jtwc_wp WP371996 7.40000 129.200 25 -1 7.10000 130.000 TD 30 996 12 305
1996303N07155 1996 105 WP MM ERNIE 1996-11-05 03:00:00 NR 7.58242 129.125 spur-merge 275 232 P__P__________ WP371996 7.76487 128.757 25 -1 7.39997 129.492 TD 30 996 12 308
1996303N07155 1996 105 WP MM ERNIE 1996-11-05 06:00:00 TS 7.97778 128.656 spur-merge 233 188 O_OO__________ jtwc_wp WP371996 8.10000 128.300 25 -1 8.60000 128.700 1 23 1004 7.70000 129.000 TD 30 996 12 308
1996303N07155 1996 105 WP MM ERNIE 1996-11-05 09:00:00 TS 8.33150 128.171 spur-merge 188 147 P_PP__________ WP371996 8.42254 127.750 27 -1 8.81263 128.253 1 23 1004 7.99990 128.550 TD 30 996 12 305
1996303N07155 1996 105 WP MM ERNIE 1996-11-05 12:00:00 TS 8.63636 127.691 spur-merge 147 109 O_OO__________ jtwc_wp WP371996 8.70000 127.200 30 -1 9.00000 127.800 1 23 1004 8.30000 128.100 TD 30 996 11 301
1996303N07155 1996 105 WP MM ERNIE 1996-11-05 15:00:00 TS 8.88823 127.227 spur-merge 99 64 P_PP__________ WP371996 8.91486 126.742 30 -1 9.14986 127.330 1 23 1004 8.59996 127.607 TD 32 993 11 296
1996303N07155 1996 105 WP MM ERNIE 1996-11-05 18:00:00 TS 9.10000 126.733 spur-merge 54 11 O_OO__________ jtwc_wp WP371996 9.10000 126.300 30 -1 9.30000 126.800 1 23 1004 8.90000 127.100 TS 35 990 11 293
1996303N07155 1996 105 WP MM ERNIE 1996-11-05 21:00:00 TS 9.32338 126.173 spur-merge 11 0 P_PP__________ WP371996 9.27007 125.777 32 -1 9.50011 126.150 1 23 1004 9.19996 126.592 TS 35 990 12 293
1996303N07155 1996 105 WP MM ERNIE 1996-11-06 00:00:00 TS 9.56667 125.633 spur-merge 0 0 O_OO__________ jtwc_wp WP371996 9.50000 125.300 35 0 9.70000 125.500 1 23 1004 9.50000 126.100 TS 35 990 11 298
1996303N07155 1996 105 WP MM ERNIE 1996-11-06 03:00:00 TS 9.82984 125.206 spur-merge 24 0 P_PP__________ WP371996 9.86231 124.992 37 0 9.82732 124.977 1 23 1004 9.79988 125.650 TS 35 990 10 305
1996303N07155 1996 105 WP MM ERNIE 1996-11-06 06:00:00 TS 10.1333 124.800 spur-merge 10 0 O_OO__________ jtwc_wp WP371996 10.3000 124.700 40 0 10.0000 124.500 1 23 1004 10.1000 125.200 TS 35 990 11 308
1996303N07155 1996 105 WP MM ERNIE 1996-11-06 09:00:00 TS 10.4974 124.337 spur-merge 32 0 P_PP__________ WP371996 10.7725 124.280 40 0 10.3274 124.000 1 23 1004 10.3923 124.730 TS 35 990 12 308
1996303N07155 1996 105 WP MM ERNIE 1996-11-06 12:00:00 TS 10.8667 123.833 spur-merge 10 10 O_OO__________ jtwc_wp WP371996 11.2000 123.800 40 0 10.7000 123.500 1 23 1004 10.7000 124.200 TS 35 990 12 305
1996303N07155 1996 105 WP MM ERNIE 1996-11-06 15:00:00 TS 11.1990 123.311 spur-merge 21 0 P_PP__________ WP371996 11.4947 123.345 42 0 11.0224 123.007 1 23 1004 11.0799 123.580 TS 35 990 12 299
1996303N07155 1996 105 WP MM ERNIE 1996-11-06 18:00:00 TS 11.4667 122.733 spur-merge 0 0 O_OO__________ jtwc_wp WP371996 11.7000 122.800 45 0 11.3000 122.500 1 23 1004 11.4000 122.900 TS 35 990 13 290
1996303N07155 1996 105 WP MM ERNIE 1996-11-06 21:00:00 TS 11.6518 122.064 spur-merge 0 0 P_PP__________ WP371996 11.8803 122.058 45 0 11.5299 121.957 1 23 1004 11.5451 122.177 TS 35 990 13 283
1996303N07155 1996 105 WP MM ERNIE 1996-11-07 00:00:00 TS 11.7667 121.400 spur-merge 43 43 O_OO__________ jtwc_wp WP371996 12.0000 121.300 45 0 11.7000 121.400 1 23 1004 11.6000 121.500 TS 35 990 12 279
1996303N07155 1996 105 WP MM ERNIE 1996-11-07 03:00:00 TS 11.8457 120.817 spur-merge 55 46 P_PP__________ WP371996 12.0574 120.667 47 0 11.8224 120.850 1 23 1004 11.6574 120.932 TS 35 990 11 277
1996303N07155 1996 105 WP MM ERNIE 1996-11-07 06:00:00 TS 11.9000 120.333 spur-merge 93 80 O_OO__________ jtwc_wp WP371996 12.1000 120.200 50 0 11.9000 120.300 1 23 1004 11.7000 120.500 TS 35 990 9 278
1996303N07155 1996 105 WP MM ERNIE 1996-11-07 09:00:00 TS 11.9616 119.952 spur-merge 89 79 P_PP__________ WP371996 12.1923 119.940 50 0 11.9500 119.720 1 23 1004 11.7424 120.197 TS 32 992 7 282
1996303N07155 1996 105 WP MM ERNIE 1996-11-07 12:00:00 TS 12.0333 119.667 spur-merge 79 78 O_OO__________ jtwc_wp WP371996 12.3000 119.800 50 0 12.0000 119.200 1 23 1004 11.8000 120.000 TD 30 994 5 287
1996303N07155 1996 105 WP MM ERNIE 1996-11-07 15:00:00 TS 12.1208 119.422 spur-merge 90 90 P_PP__________ WP371996 12.4000 119.635 50 0 12.0849 118.798 1 26 1003 11.8775 119.835 TD 30 994 5 295
1996303N07155 1996 105 WP MM ERNIE 1996-11-07 18:00:00 TS 12.2333 119.233 spur-merge 105 105 O_OO__________ jtwc_wp WP371996 12.5000 119.500 50 0 12.2000 118.500 1 29 1002 12.0000 119.700 TD 30 994 4 304
1996303N07155 1996 105 WP MM ERNIE 1996-11-07 21:00:00 TS 12.3508 119.071 spur-merge 130 130 P_PP__________ WP371996 12.5625 119.407 50 0 12.3200 118.255 1 29 1001 12.1700 119.550 TD 30 994 4 316
1996303N07155 1996 105 WP MM ERNIE 1996-11-08 00:00:00 TS 12.5333 118.933 spur-merge 149 149 O_OO__________ jtwc_wp WP371996 12.7000 119.300 50 0 12.5000 118.100 1 29 1000 12.4000 119.400 TD 30 994 5 330
1996303N07155 1996 105 WP MM ERNIE 1996-11-08 03:00:00 TS 12.8175 118.795 spur-merge 175 171 P_PP__________ WP371996 13.0125 119.108 50 0 12.7700 118.027 1 29 1000 12.6700 119.250 TD 30 994 7 338
1996303N07155 1996 105 WP MM ERNIE 1996-11-08 06:00:00 TS 13.1667 118.667 spur-merge 174 174 O_OO__________ jtwc_wp WP371996 13.4000 118.900 50 0 13.1000 118.000 1 29 1000 13.0000 119.100 TD 30 994 7 341
1996303N07155 1996 105 WP MM ERNIE 1996-11-08 09:00:00 TS 13.5158 118.550 spur-merge 195 195 P_PP__________ WP371996 13.7500 118.735 50 0 13.4350 117.965 1 29 1000 13.3625 118.950 TD 30 994 8 343
1996303N07155 1996 105 WP MM ERNIE 1996-11-08 12:00:00 TS 13.9000 118.433 spur-merge 209 199 O_OO__________ jtwc_wp WP371996 14.1000 118.600 50 0 13.8000 117.900 1 29 1000 13.8000 118.800 TD 30 994 8 343
1996303N07155 1996 105 WP MM ERNIE 1996-11-08 15:00:00 TS 14.3058 118.297 spur-merge 201 196 P_PP__________ WP371996 14.4125 118.485 47 0 14.1775 117.765 1 29 999 14.3275 118.643 TD 30 994 9 343
1996303N07155 1996 105 WP MM ERNIE 1996-11-08 18:00:00 TS 14.7667 118.167 spur-merge 194 188 O_OO__________ jtwc_wp WP371996 14.8000 118.400 45 0 14.6000 117.600 1 29 998 14.9000 118.500 TD 30 994 10 347
1996303N07155 1996 105 WP MM ERNIE 1996-11-08 21:00:00 TS 15.2916 118.069 spur-merge 188 183 P_PP__________ WP371996 15.3549 118.380 42 0 15.0700 117.435 1 29 998 15.4500 118.392 TD 30 994 11 350
1996303N07155 1996 105 WP MM ERNIE 1996-11-09 00:00:00 TS 15.8667 117.967 spur-merge 182 182 O_OO__________ jtwc_wp WP371996 16.0000 118.300 40 0 15.6000 117.300 1 29 998 16.0000 118.300 TD 30 994 12 348
1996303N07155 1996 105 WP MM ERNIE 1996-11-09 03:00:00 TS 16.4742 117.799 spur-merge 210 210 P_PP__________ WP371996 16.6952 117.993 37 0 16.1700 117.213 1 29 998 16.5575 118.193 TD 30 994 13 349
1996303N07155 1996 105 WP MM ERNIE 1996-11-09 06:00:00 TS 17.0909 117.709 spur-merge 240 240 O_OO__________ jtwc_wp WP371996 17.3000 117.700 35 0 16.8000 117.200 1 29 998 17.1000 118.100 TD 30 994 12 355
1996303N07155 1996 105 WP MM ERNIE 1996-11-09 09:00:00 TS 17.6236 117.693 spur-merge 266 266 P_PP__________ WP371996 17.6524 117.647 35 0 17.4850 117.275 1 29 998 17.6100 118.040 TD 30 994 9 2
1996303N07155 1996 105 WP MM ERNIE 1996-11-09 12:00:00 TS 18.0167 117.750 spur-merge 268 268 O_OO__________ jtwc_wp WP371996 17.9000 117.700 35 0 18.2000 117.400 1 29 998 18.1000 118.000 TD 30 994 7 9
1996303N07155 1996 105 WP MM ERNIE 1996-11-09 15:00:00 NR 18.2767 117.809 spur-merge 275 275 P_____________ WP371996 18.1825 117.755 37 0 1 TD 5 4
1996303N07155 1996 105 WP MM ERNIE 1996-11-09 18:00:00 NR 18.5000 117.800 spur-merge 282 O_____________ jtwc_wp WP371996 18.5000 117.800 40 0 5 356

デジタル台風データ・検索

IBTrACS Databaseについて

本データベースは、米国NOAAが公開する1842年以降の世界の熱帯低気圧のベストトラックデータアーカイブInternational Best Track Archive for Climate Stewardship (IBTrACS)を、ウェブで閲覧しやすい形式に変換したものです。

最終更新日:2021-10-25